Terminal Aerodrome Forecast
Issued by NWS

Home | Current Version | Previous Version | Text Only | Print | Product List | Glossary On
Versions: 1 2 3 4 5 6 7 8 9 10 11 12 13 14 15 16 17 18 19 20 21 22 23 24 25 26 27 28 29 30
061
FTUS44 KHGX 221135
TAFUTS
TAF
KUTS 221135Z 2212/2312 06004KT 6SM BR BKN007 BKN015
      TEMPO 2212/2214 3SM BR OVC002
     FM221500 08005KT P6SM BKN015 BKN025
     FM221800 12005KT P6SM VCSH SCT020 BKN035
     FM222300 VRB02KT P6SM BKN035
     FM230900 10004KT P6SM SCT012 BKN020=

USA.gov is the U.S. government's official web portal to all federal, state and local government web resources and services.